Time;durP1;ratioP1;P1;durP2;ratioP2;P2;SDS_P1;SDS_P2;PMS_P1;PMS_P2;Temp;Humidity;BMP_temperature;BMP_pressure;BME280_temperature;BME280_humidity;BME280_pressure;Samples;Min_cycle;Max_cycle;Signal;HPM_P1;HPM_P2
2023/04/19 00:00:13;;;;;;;18.77;16.90;;;;;;;8.98;86.33;102438.09;4969299;28;20115;-88
2023/04/19 00:02:40;;;;;;;19.27;17.38;;;;;;;8.97;86.65;102447.84;4965575;28;20622;-90
2023/04/19 00:05:06;;;;;;;19.30;17.50;;;;;;;9.00;86.46;102441.63;4964002;28;20054;-90
2023/04/19 00:07:32;;;;;;;19.45;17.45;;;;;;;9.03;86.03;102438.91;4945829;28;20043;-89
2023/04/19 00:09:57;;;;;;;19.83;17.80;;;;;;;9.03;85.88;102432.69;4943102;28;20714;-88
2023/04/19 00:12:23;;;;;;;20.30;18.25;;;;;;;9.01;86.30;102424.75;4953223;28;20035;-89
2023/04/19 00:14:48;;;;;;;19.88;17.88;;;;;;;9.03;86.27;102430.94;4954540;28;20081;-90
2023/04/19 00:17:13;;;;;;;20.02;18.13;;;;;;;9.04;86.13;102427.38;4971029;28;20054;-89
2023/04/19 00:19:39;;;;;;;20.25;18.25;;;;;;;9.04;86.14;102432.69;4956322;28;20046;-90
2023/04/19 00:22:04;;;;;;;19.75;17.80;;;;;;;9.08;85.87;102430.84;4953307;28;20603;-89
2023/04/19 00:24:29;;;;;;;20.17;18.20;;;;;;;9.09;86.16;102443.22;4943939;28;20035;-90
2023/04/19 00:26:56;;;;;;;20.92;18.85;;;;;;;9.12;86.01;102432.53;4949885;28;20096;-88
2023/04/19 00:29:21;;;;;;;19.88;17.85;;;;;;;9.12;86.07;102435.19;4974593;28;20036;-88
2023/04/19 00:31:47;;;;;;;20.92;18.75;;;;;;;9.12;85.82;102428.09;5014095;28;20031;-90
2023/04/19 00:34:12;;;;;;;20.48;18.52;;;;;;;9.10;86.16;102416.63;4950637;28;20124;-89
2023/04/19 00:36:37;;;;;;;21.10;19.00;;;;;;;9.09;86.07;102411.34;4952673;28;20027;-89
2023/04/19 00:39:03;;;;;;;21.67;19.42;;;;;;;9.14;86.16;102430.72;4947655;28;20031;-89
2023/04/19 00:41:28;;;;;;;20.80;18.80;;;;;;;9.11;86.13;102412.16;4947218;28;20102;-89
2023/04/19 00:43:53;;;;;;;21.25;19.15;;;;;;;9.12;86.10;102416.59;4997174;28;20071;-90
2023/04/19 00:46:19;;;;;;;21.30;19.08;;;;;;;9.13;86.11;102418.34;4963267;28;20050;-90
2023/04/19 00:48:45;;;;;;;22.10;19.80;;;;;;;9.17;86.05;102417.38;4959316;28;20019;-89
2023/04/19 00:51:10;;;;;;;22.30;19.30;;;;;;;9.12;86.11;102412.16;4952397;28;20441;-91
2023/04/19 00:53:37;;;;;;;22.15;19.70;;;;;;;9.12;85.93;102411.28;4942381;28;20493;-89
2023/04/19 00:56:04;;;;;;;22.02;19.80;;;;;;;9.10;86.34;102416.63;4943377;28;20031;-89
2023/04/19 00:58:30;;;;;;;21.52;19.52;;;;;;;9.15;86.44;102420.06;5004972;28;20030;-89
2023/04/19 01:00:56;;;;;;;20.38;18.25;;;;;;;9.16;86.14;102418.28;4956954;28;20039;-88
2023/04/19 01:03:21;;;;;;;21.98;19.65;;;;;;;9.17;85.98;102420.03;4948226;28;20087;-87
2023/04/19 01:05:47;;;;;;;21.45;19.25;;;;;;;9.18;86.03;102417.34;4953807;28;20031;-89
2023/04/19 01:08:13;;;;;;;20.83;18.83;;;;;;;9.14;85.96;102417.44;4972378;28;20089;-88
2023/04/19 01:10:38;;;;;;;20.85;18.65;;;;;;;9.16;86.09;102411.19;4953921;28;20115;-90
2023/04/19 01:13:04;;;;;;;21.13;19.08;;;;;;;9.16;86.06;102415.63;4953810;28;20031;-90
2023/04/19 01:15:32;;;;;;;20.77;18.73;;;;;;;9.18;86.21;102419.13;4955992;28;20027;-89
2023/04/19 01:17:57;;;;;;;21.60;19.45;;;;;;;9.15;86.27;102420.06;4952534;28;20024;-90
2023/04/19 01:20:23;;;;;;;20.90;18.77;;;;;;;9.14;86.62;102415.66;4993654;28;20049;-91
2023/04/19 01:22:48;;;;;;;21.63;19.52;;;;;;;9.15;86.54;102414.72;4952032;28;20048;-89
2023/04/19 01:25:14;;;;;;;21.80;19.63;;;;;;;9.12;86.73;102409.50;4989198;28;20051;-87
2023/04/19 01:27:39;;;;;;;20.85;18.60;;;;;;;9.10;86.60;102405.13;4959301;28;20058;-90
2023/04/19 01:30:05;;;;;;;20.05;18.15;;;;;;;9.12;87.13;102416.59;4952126;29;20057;-89
2023/04/19 01:32:30;;;;;;;20.77;18.77;;;;;;;9.13;87.50;102423.66;4974158;28;20042;-91
2023/04/19 01:34:56;;;;;;;20.88;18.80;;;;;;;9.09;87.44;102414.00;4966898;28;20036;-89
2023/04/19 01:37:21;;;;;;;21.25;19.05;;;;;;;9.08;87.38;102412.25;4965563;28;20042;-90
2023/04/19 01:39:47;;;;;;;21.38;19.23;;;;;;;9.06;87.76;102416.72;4993224;28;20147;-89
2023/04/19 01:42:12;;;;;;;20.52;18.52;;;;;;;9.05;87.67;102405.22;4932339;28;20064;-89
2023/04/19 01:44:38;;;;;;;20.42;18.33;;;;;;;9.00;88.03;102399.13;4966970;28;20029;-90
2023/04/19 01:47:04;;;;;;;21.25;19.15;;;;;;;9.06;88.08;102416.72;4937887;28;20094;-89
2023/04/19 01:49:29;;;;;;;21.98;19.20;;;;;;;9.05;88.40;102421.16;4962947;28;20115;-90
2023/04/19 01:51:55;;;;;;;20.63;18.63;;;;;;;9.00;88.57;102411.53;4955959;28;20040;-89
2023/04/19 01:54:20;;;;;;;20.80;18.60;;;;;;;9.04;88.86;102416.75;4928642;28;20034;-91
2023/04/19 01:56:45;;;;;;;20.92;18.73;;;;;;;8.93;88.98;102382.41;4926430;28;20050;-89
2023/04/19 01:59:11;;;;;;;21.10;18.83;;;;;;;8.95;89.03;102385.06;4918415;28;20466;-89
2023/04/19 02:01:36;;;;;;;21.13;18.92;;;;;;;9.06;89.28;102414.06;4953371;28;20179;-88
2023/04/19 02:04:02;;;;;;;21.52;19.33;;;;;;;9.04;89.58;102397.28;4930664;28;20101;-90
2023/04/19 02:06:28;;;;;;;20.73;18.52;;;;;;;9.05;89.62;102401.69;4924733;28;20056;-89
2023/04/19 02:08:53;;;;;;;21.17;18.92;;;;;;;9.03;89.69;102393.75;4949320;28;20478;-90
2023/04/19 02:11:18;;;;;;;20.83;18.73;;;;;;;8.97;90.15;102380.59;4930458;28;20552;-90
2023/04/19 02:13:44;;;;;;;21.70;19.23;;;;;;;9.06;90.35;102398.97;4952611;28;20051;-90
2023/04/19 02:16:09;;;;;;;20.75;18.65;;;;;;;9.00;90.61;102379.66;4944270;28;20056;-89
2023/04/19 02:18:37;;;;;;;20.85;18.73;;;;;;;9.05;90.48;102393.72;4971105;28;20032;-90
2023/04/19 02:21:03;;;;;;;20.85;18.40;;;;;;;9.04;90.83;102382.22;4949700;28;20035;-89
2023/04/19 02:23:29;;;;;;;20.98;18.88;;;;;;;9.03;91.02;102377.81;4954213;28;20519;-90
2023/04/19 02:25:54;;;;;;;22.30;19.38;;;;;;;9.10;91.10;102386.53;4934698;29;20027;-89
2023/04/19 02:28:20;;;;;;;22.70;19.45;;;;;;;9.10;91.04;102381.22;4934286;28;20443;-90
2023/04/19 02:30:45;;;;;;;21.42;19.17;;;;;;;9.10;91.64;102379.44;4943509;28;20026;-89
2023/04/19 02:33:11;;;;;;;21.58;19.30;;;;;;;9.13;91.57;102384.69;4949926;28;20036;-88
2023/04/19 02:35:36;;;;;;;21.92;18.50;;;;;;;9.12;91.68;102382.94;4937585;28;20059;-89
2023/04/19 02:38:03;;;;;;;21.80;19.45;;;;;;;9.14;92.01;102385.56;4930329;29;20190;-90
2023/04/19 02:40:28;;;;;;;21.23;19.05;;;;;;;9.17;91.83;102386.38;4929326;28;20043;-89
2023/04/19 02:42:54;;;;;;;21.30;18.95;;;;;;;9.20;92.23;102385.44;4932061;28;20062;-90
2023/04/19 02:45:19;;;;;;;21.88;19.50;;;;;;;9.10;92.40;102374.13;4972361;28;20046;-90
2023/04/19 02:47:45;;;;;;;21.25;18.98;;;;;;;9.16;92.52;102384.63;4964069;28;20039;-90
2023/04/19 02:50:11;;;;;;;21.40;19.25;;;;;;;9.18;92.61;102389.91;4960082;28;20033;-90
2023/04/19 02:52:36;;;;;;;22.35;19.30;;;;;;;9.11;92.77;102374.97;4931610;28;20043;-90
2023/04/19 02:55:03;;;;;;;21.02;18.85;;;;;;;9.17;92.68;102381.06;4935382;28;20114;-91
2023/04/19 02:57:28;;;;;;;22.92;19.05;;;;;;;9.12;92.85;102374.09;4934435;28;20032;-90
2023/04/19 02:59:54;;;;;;;21.60;19.27;;;;;;;9.18;93.02;102384.59;4921304;28;20627;-89
2023/04/19 03:02:19;;;;;;;21.30;19.10;;;;;;;9.20;93.03;102388.09;4922168;28;20028;-89
2023/04/19 03:04:46;;;;;;;21.80;19.30;;;;;;;9.15;93.26;102387.28;4920566;28;20481;-89
2023/04/19 03:07:11;;;;;;;21.08;18.85;;;;;;;9.15;93.31;102382.00;4931376;28;20134;-88
2023/04/19 03:09:37;;;;;;;21.83;19.45;;;;;;;9.14;93.21;102386.44;4923712;28;20063;-89
2023/04/19 03:12:02;;;;;;;20.25;18.05;;;;;;;9.13;93.25;102395.31;4940706;28;20035;-89
2023/04/19 03:14:28;;;;;;;20.63;18.05;;;;;;;9.12;93.29;102376.75;4928410;28;20545;-88
2023/04/19 03:16:53;;;;;;;21.63;19.08;;;;;;;9.13;93.48;102376.72;4929860;28;20122;-90
2023/04/19 03:19:18;;;;;;;20.38;18.27;;;;;;;9.14;93.16;102383.78;4925829;28;20127;-89
2023/04/19 03:21:44;;;;;;;20.83;18.50;;;;;;;9.09;93.29;102366.19;4928702;28;20044;-89
2023/04/19 03:24:09;;;;;;;20.20;18.10;;;;;;;9.14;93.03;102378.47;4928245;28;20555;-89
2023/04/19 03:26:34;;;;;;;20.00;17.65;;;;;;;9.16;93.35;102383.75;4965644;28;20046;-90
2023/04/19 03:29:00;;;;;;;21.08;18.80;;;;;;;9.13;93.15;102382.03;4928567;28;20028;-89
2023/04/19 03:31:25;;;;;;;20.73;17.73;;;;;;;9.17;93.26;102377.53;4950025;28;20035;-89
2023/04/19 03:33:51;;;;;;;20.40;17.48;;;;;;;9.16;93.13;102379.31;4941901;28;20039;-87
2023/04/19 03:36:16;;;;;;;19.42;17.38;;;;;;;9.15;93.00;102374.03;4935740;28;20059;-89
2023/04/19 03:38:43;;;;;;;19.15;17.25;;;;;;;9.18;92.72;102372.19;4923433;28;20031;-90
2023/04/19 03:41:25;;;;;;;18.83;16.83;;;;;;;9.19;92.64;102373.91;4923449;28;20024;-89
2023/04/19 03:43:50;;;;;;;19.35;17.35;;;;;;;9.19;92.61;102375.69;4931600;28;20481;-90
2023/04/19 03:46:15;;;;;;;20.17;16.83;;;;;;;9.16;92.68;102362.50;4955690;28;20069;-90
2023/04/19 03:48:41;;;;;;;18.92;16.92;;;;;;;9.14;92.56;102357.22;4933707;28;20287;-90
2023/04/19 03:51:06;;;;;;;18.15;16.23;;;;;;;9.11;92.92;102357.28;4947965;28;20460;-89
2023/04/19 03:53:31;;;;;;;18.67;16.77;;;;;;;9.15;93.26;102368.69;4955608;28;20037;-89
2023/04/19 03:55:57;;;;;;;18.35;16.45;;;;;;;9.03;93.02;102356.56;4960875;28;20028;-90
2023/04/19 03:58:22;;;;;;;18.23;16.42;;;;;;;9.04;93.37;102363.63;4955967;28;20036;-89
2023/04/19 04:00:48;;;;;;;18.60;16.60;;;;;;;9.01;93.42;102362.81;4919951;28;20685;-90
2023/04/19 04:03:13;;;;;;;18.80;16.48;;;;;;;8.91;93.61;102363.00;4930623;28;20036;-89
2023/04/19 04:05:38;;;;;;;19.73;17.52;;;;;;;8.94;93.72;102370.88;4932145;28;20032;-89
2023/04/19 04:08:04;;;;;;;17.75;15.88;;;;;;;8.89;93.79;102372.75;4926368;28;20071;-90
2023/04/19 04:10:29;;;;;;;18.30;16.27;;;;;;;8.95;93.91;102377.09;4932832;28;20460;-88
2023/04/19 04:12:55;;;;;;;19.48;16.27;;;;;;;8.96;93.96;102374.41;4928846;28;20242;-91
2023/04/19 04:15:20;;;;;;;18.10;16.20;;;;;;;8.96;94.02;102374.41;4939178;28;20059;-88
2023/04/19 04:17:45;;;;;;;17.50;15.60;;;;;;;8.96;93.84;102373.53;4988362;28;20029;-90
2023/04/19 04:20:12;;;;;;;17.80;15.90;;;;;;;8.91;94.00;102368.31;4975474;28;20028;-89
2023/04/19 04:22:47;;;;;;;17.50;15.70;;;;;;;8.90;94.09;102368.31;4938405;28;20047;-89
2023/04/19 04:25:14;;;;;;;18.45;16.02;;;;;;;8.94;93.85;102370.88;4947235;28;20025;-90
2023/04/19 04:27:41;;;;;;;18.52;16.63;;;;;;;8.85;94.27;102368.41;4924056;28;20038;-90
2023/04/19 04:30:07;;;;;;;17.52;15.73;;;;;;;8.83;94.45;102369.38;4934371;28;20099;-89
2023/04/19 04:32:37;;;;;;;18.05;16.23;;;;;;;8.77;94.84;102378.31;4924284;28;20039;-88
2023/04/19 04:35:03;;;;;;;17.55;15.73;;;;;;;8.79;94.90;102392.44;4925597;28;20114;-88
2023/04/19 04:37:32;;;;;;;18.85;16.13;;;;;;;8.71;95.40;102381.97;4921303;29;20205;-91
2023/04/19 04:39:58;;;;;;;17.08;15.27;;;;;;;8.59;95.63;102376.88;4946662;28;20032;-90
2023/04/19 04:42:23;;;;;;;17.73;15.85;;;;;;;8.61;96.08;102388.34;4950279;28;20038;-90
2023/04/19 04:44:49;;;;;;;17.95;16.05;;;;;;;8.57;95.89;102384.00;4943759;28;20084;-89
2023/04/19 04:47:16;;;;;;;17.27;15.48;;;;;;;8.48;95.89;102377.09;4950042;28;20024;-90
2023/04/19 04:49:42;;;;;;;16.35;14.73;;;;;;;8.54;96.13;102389.34;4928089;28;20123;-90
2023/04/19 04:52:07;;;;;;;18.60;15.45;;;;;;;8.55;96.17;102390.22;4935919;28;20055;-90
2023/04/19 04:54:33;;;;;;;16.23;14.68;;;;;;;8.55;96.00;102388.44;4938624;28;20492;-89
2023/04/19 04:56:59;;;;;;;16.55;14.85;;;;;;;8.60;95.76;102391.00;4930202;28;20035;-90
2023/04/19 04:59:25;;;;;;;16.08;14.48;;;;;;;8.51;95.53;102378.78;4943884;28;20029;-90
2023/04/19 05:01:50;;;;;;;15.80;13.63;;;;;;;8.64;94.99;102393.59;4931282;28;20038;-89
2023/04/19 05:04:16;;;;;;;15.07;13.52;;;;;;;8.65;94.38;102397.09;4927544;28;20119;-91
2023/04/19 05:06:43;;;;;;;15.25;13.63;;;;;;;8.67;94.17;102393.53;4911994;28;20032;-90
2023/04/19 05:09:09;;;;;;;15.50;12.85;;;;;;;8.68;93.76;102391.75;4941724;28;20078;-90
2023/04/19 05:11:34;;;;;;;13.70;12.38;;;;;;;8.73;92.96;102400.50;4961421;28;20059;-89
2023/04/19 05:14:00;;;;;;;14.10;12.45;;;;;;;8.65;92.56;102395.34;4926638;28;20467;-89
2023/04/19 05:16:26;;;;;;;12.80;11.48;;;;;;;8.57;92.56;102393.72;4986883;28;20028;-90
2023/04/19 05:18:51;;;;;;;13.23;11.82;;;;;;;8.43;92.27;102397.50;4979823;28;20033;-89
2023/04/19 05:21:16;;;;;;;12.88;11.38;;;;;;;8.35;92.52;102403.78;4931829;28;20032;-89
2023/04/19 05:23:42;;;;;;;13.63;12.20;;;;;;;8.29;92.71;102402.13;4944411;28;20067;-89
2023/04/19 05:26:11;;;;;;;13.55;11.82;;;;;;;8.23;92.88;102400.47;4919672;29;20065;-89
2023/04/19 05:28:36;;;;;;;12.30;10.50;;;;;;;8.13;92.55;102393.53;4930605;28;20066;-90
2023/04/19 05:31:02;;;;;;;13.10;11.80;;;;;;;8.14;92.96;102415.63;4945050;28;20024;-88
2023/04/19 05:33:27;;;;;;;13.30;11.43;;;;;;;8.05;93.19;102397.22;4961565;28;20031;-90
2023/04/19 05:35:52;;;;;;;13.90;12.25;;;;;;;8.06;92.86;102402.47;4946392;28;20051;-90
2023/04/19 05:38:17;;;;;;;11.65;10.55;;;;;;;8.07;93.09;102404.25;4949766;28;20029;-90
2023/04/19 05:40:43;;;;;;;11.50;10.13;;;;;;;8.08;92.79;102413.09;4958626;28;20039;-89
2023/04/19 05:43:08;;;;;;;11.32;10.23;;;;;;;8.10;92.38;102408.63;4988152;28;20025;-90
2023/04/19 05:45:33;;;;;;;11.95;10.77;;;;;;;8.21;92.24;102417.28;4929382;28;20396;-90
2023/04/19 05:47:59;;;;;;;11.40;10.30;;;;;;;8.22;91.33;102411.94;4967018;28;20036;-89
2023/04/19 05:50:24;;;;;;;12.32;10.57;;;;;;;8.30;90.37;102403.88;4963736;28;20050;-91
2023/04/19 05:52:49;;;;;;;10.85;9.65;;;;;;;8.50;90.16;102413.31;4922950;28;20457;-87
2023/04/19 05:55:15;;;;;;;11.68;9.77;;;;;;;8.60;89.33;102410.47;4969322;28;20026;-89
2023/04/19 05:57:40;;;;;;;11.15;9.93;;;;;;;8.66;88.66;102406.84;4944042;28;20078;-89
2023/04/19 06:00:08;;;;;;;10.80;9.40;;;;;;;8.84;87.32;102409.16;4926121;28;20519;-90
2023/04/19 06:02:33;;;;;;;9.93;8.93;;;;;;;8.90;86.19;102406.41;4952157;28;20028;-89
2023/04/19 06:05:02;;;;;;;10.73;9.63;;;;;;;8.96;85.34;102408.06;4967472;28;20481;-89
2023/04/19 06:07:28;;;;;;;10.25;9.13;;;;;;;9.03;84.54;102422.06;4958811;28;20058;-91
2023/04/19 06:09:53;;;;;;;10.57;8.85;;;;;;;9.13;83.88;102413.03;4927838;28;20107;-89
2023/04/19 06:12:18;;;;;;;10.27;9.27;;;;;;;9.03;83.45;102424.72;4926950;28;20020;-90
2023/04/19 06:14:44;;;;;;;11.52;10.32;;;;;;;8.85;84.02;102407.38;4917416;28;20123;-89
2023/04/19 06:17:09;;;;;;;9.90;8.90;;;;;;;8.76;83.79;102427.00;4963271;28;20041;-88
2023/04/19 06:19:35;;;;;;;10.25;8.98;;;;;;;8.58;84.08;102403.44;4926935;28;20047;-88
2023/04/19 06:22:01;;;;;;;11.50;9.07;;;;;;;8.61;84.05;102401.63;4926775;28;20044;-87
2023/04/19 06:24:26;;;;;;;10.40;9.30;;;;;;;8.71;83.86;102418.25;4962377;28;20083;-88
2023/04/19 06:26:52;;;;;;;10.73;9.30;;;;;;;8.71;84.05;102408.50;4963735;28;20029;-87
2023/04/19 06:29:20;;;;;;;10.10;9.10;;;;;;;8.84;82.49;102414.47;4953059;28;20121;-89
2023/04/19 06:31:46;;;;;;;9.73;8.82;;;;;;;8.92;82.56;102404.56;4959990;28;20070;-88
2023/04/19 06:34:11;;;;;;;11.25;9.05;;;;;;;9.36;81.97;102405.44;4967408;28;20028;-88
2023/04/19 06:36:37;;;;;;;9.60;8.63;;;;;;;9.57;80.07;102408.56;4982978;28;20036;-87
2023/04/19 06:39:02;;;;;;;9.45;8.55;;;;;;;9.77;78.66;102406.34;4970734;28;20482;-89
2023/04/19 06:41:28;;;;;;;9.35;8.35;;;;;;;9.94;77.43;102403.28;4944158;28;20032;-90
2023/04/19 06:43:53;;;;;;;9.57;8.40;;;;;;;10.05;74.69;102393.28;4952704;28;20047;-88
2023/04/19 06:46:19;;;;;;;11.20;9.25;;;;;;;10.20;74.58;102395.59;4939208;28;20062;-88
2023/04/19 06:48:44;;;;;;;10.27;8.73;;;;;;;10.36;73.48;102393.44;4949961;28;20030;-89
2023/04/19 06:51:09;;;;;;;10.23;8.82;;;;;;;10.40;72.88;102392.44;4936224;28;20030;-89
2023/04/19 06:53:35;;;;;;;8.98;8.05;;;;;;;10.78;72.52;102400.34;4937570;28;20147;-90
2023/04/19 06:56:03;;;;;;;9.68;8.68;;;;;;;10.87;69.76;102381.47;4936751;28;20198;-88
2023/04/19 06:58:28;;;;;;;9.68;8.65;;;;;;;11.07;68.80;102399.53;4934476;28;20035;-88
2023/04/19 07:00:54;;;;;;;10.20;7.70;;;;;;;11.09;66.99;102389.72;4924788;28;20031;-89
2023/04/19 07:03:20;;;;;;;8.90;8.00;;;;;;;11.20;65.83;102392.94;4928735;28;20031;-87
2023/04/19 07:05:45;;;;;;;10.02;8.27;;;;;;;11.27;64.07;102402.50;4943656;28;20062;-85
2023/04/19 07:08:11;;;;;;;9.10;8.20;;;;;;;11.34;63.49;102393.44;4946531;28;20035;-89
2023/04/19 07:10:36;;;;;;;9.95;7.70;;;;;;;11.34;62.11;102400.56;4930952;28;20047;-89
2023/04/19 07:13:01;;;;;;;9.02;8.13;;;;;;;11.60;62.93;102402.44;4932528;28;20130;-88
2023/04/19 07:15:27;;;;;;;9.52;8.02;;;;;;;11.78;62.69;102385.84;4933065;28;20039;-88
2023/04/19 07:17:52;;;;;;;8.68;7.78;;;;;;;12.09;60.97;102400.94;4931300;29;20093;-89
2023/04/19 07:20:17;;;;;;;9.00;8.10;;;;;;;12.39;60.34;102404.41;4933434;28;20115;-90
2023/04/19 07:22:43;;;;;;;9.07;8.13;;;;;;;12.47;57.92;102394.31;4924525;29;20052;-90
2023/04/19 07:25:09;;;;;;;8.25;7.45;;;;;;;12.63;57.81;102402.69;4933068;29;20023;-90
2023/04/19 07:27:35;;;;;;;12.95;8.40;;;;;;;13.02;56.71;102402.19;5013065;28;20028;-91
2023/04/19 07:30:15;;;;;;;8.82;7.93;;;;;;;13.24;55.21;102400.50;4932863;29;20040;-93
2023/04/19 07:32:41;;;;;;;9.20;8.07;;;;;;;13.38;53.67;102403.56;4939701;28;20031;-93
2023/04/19 07:35:06;;;;;;;9.55;7.82;;;;;;;13.25;52.64;102402.28;5022254;28;20050;-93
2023/04/19 07:37:31;;;;;;;8.38;7.60;;;;;;;13.40;52.39;102399.00;4935979;28;20078;-92
2023/04/19 07:39:57;;;;;;;9.43;7.20;;;;;;;13.82;52.76;102398.25;4938490;28;20091;-92
2023/04/19 07:42:24;;;;;;;8.18;7.38;;;;;;;14.16;50.95;102394.22;4938198;29;20034;-91
2023/04/19 07:44:49;;;;;;;8.70;7.00;;;;;;;14.53;50.07;102395.41;4931115;28;20485;-88
2023/04/19 07:47:15;;;;;;;8.23;6.90;;;;;;;14.53;49.50;102387.34;5012783;28;20039;-89
2023/04/19 07:49:40;;;;;;;8.00;7.20;;;;;;;14.85;48.45;102383.28;4952859;28;20047;-90
2023/04/19 07:52:07;;;;;;;8.85;6.93;;;;;;;14.78;47.41;102385.34;4961501;28;20047;-90
2023/04/19 07:54:32;;;;;;;8.85;6.80;;;;;;;14.77;46.69;102386.28;4943905;28;20032;-90
2023/04/19 07:56:57;;;;;;;9.68;7.20;;;;;;;14.80;45.95;102388.84;4948047;28;20032;-88
2023/04/19 07:59:25;;;;;;;8.52;7.03;;;;;;;14.81;46.01;102384.34;4939561;28;20031;-91
2023/04/19 08:01:51;;;;;;;7.72;6.93;;;;;;;15.16;46.12;102393.50;4927941;28;20177;-87
2023/04/19 08:04:18;;;;;;;6.75;6.03;;;;;;;15.63;45.70;102390.41;4948993;28;20477;-89
2023/04/19 08:06:44;;;;;;;7.47;6.60;;;;;;;15.51;44.09;102366.81;4933252;28;20023;-91
2023/04/19 08:09:10;;;;;;;8.18;6.78;;;;;;;15.64;43.17;102371.59;4930844;28;20092;-90
2023/04/19 08:11:35;;;;;;;7.00;6.30;;;;;;;15.97;43.10;102381.66;4927179;28;20471;-90
2023/04/19 08:14:00;;;;;;;8.02;6.45;;;;;;;16.38;42.34;102389.44;4926378;28;20032;-91
2023/04/19 08:16:27;;;;;;;7.32;6.13;;;;;;;16.51;41.24;102389.69;4929481;29;20031;-91
2023/04/19 08:18:52;;;;;;;7.38;6.60;;;;;;;16.66;40.44;102384.38;4936350;28;20055;-91
2023/04/19 08:21:17;;;;;;;7.72;6.20;;;;;;;17.01;40.62;102378.13;4925546;28;20063;-91
2023/04/19 08:23:43;;;;;;;7.28;6.35;;;;;;;17.61;40.05;102373.91;4920802;29;20060;-92
2023/04/19 08:26:09;;;;;;;7.28;6.57;;;;;;;17.77;38.79;102367.69;4945610;28;20016;-90
2023/04/19 08:28:34;;;;;;;8.57;6.63;;;;;;;18.02;37.99;102384.19;4931042;28;20031;-90
2023/04/19 08:31:30;;;;;;;;;;;;;;;;;;;;;
2023/04/19 08:34:01;;;;;;;8.95;6.80;;;;;;;18.30;37.18;102345.69;4859902;29;20044;-91
2023/04/19 08:36:39;;;;;;;7.10;6.32;;;;;;;18.43;36.49;102383.56;4959537;28;20032;-89
2023/04/19 08:39:05;;;;;;;7.32;6.60;;;;;;;18.30;36.57;102339.41;4881296;28;20069;-89
2023/04/19 08:41:31;;;;;;;6.93;6.00;;;;;;;18.72;35.15;102333.28;4876354;28;20035;-90
2023/04/19 08:43:57;;;;;;;6.53;5.93;;;;;;;18.89;35.11;102345.72;4857820;28;20025;-89
2023/04/19 08:46:23;;;;;;;7.25;6.55;;;;;;;19.38;34.37;102378.59;4955561;28;20033;-90
2023/04/19 08:48:50;;;;;;;8.52;6.60;;;;;;;19.64;33.08;102341.84;4905415;28;20062;-90
2023/04/19 08:51:16;;;;;;;7.05;6.25;;;;;;;19.45;32.27;102359.31;4869569;28;20088;-88
2023/04/19 08:53:47;;;;;;;8.32;6.32;;;;;;;19.10;32.51;102359.72;4885049;28;20025;-90
2023/04/19 08:56:13;;;;;;;7.43;5.50;;;;;;;19.28;31.93;102355.00;4970035;28;20051;-91
2023/04/19 08:58:38;;;;;;;8.32;6.03;;;;;;;19.06;31.90;102339.28;4886727;28;20021;-91
2023/04/19 09:01:05;;;;;;;6.22;5.50;;;;;;;19.48;32.16;102370.81;4896758;28;20033;-90
2023/04/19 09:03:33;;;;;;;7.60;5.60;;;;;;;19.74;31.90;102361.03;4906455;28;20036;-90
2023/04/19 09:06:02;;;;;;;6.72;6.03;;;;;;;20.04;31.48;102365.38;4890362;28;20070;-89
2023/04/19 09:08:59;;;;;;;6.57;5.47;;;;;;;20.04;30.88;102344.63;4885827;29;20052;-92
2023/04/19 09:15:07;;;;;;;6.22;4.97;;;;;;;20.94;29.62;102378.09;4948876;28;20130;-91
2023/04/19 09:17:46;;;;;;;6.38;5.13;;;;;;;20.59;29.16;102337.31;4949706;29;20051;-89
2023/04/19 09:20:14;;;;;;;6.35;4.75;;;;;;;20.34;29.00;102351.63;4942216;29;20077;-88
2023/04/19 09:22:39;;;;;;;6.40;5.18;;;;;;;20.84;29.40;102358.97;4938982;29;20047;-89
2023/04/19 09:25:05;;;;;;;5.93;5.05;;;;;;;21.20;28.02;102360.03;4939206;29;20140;-89
2023/04/19 09:27:35;;;;;;;5.82;5.03;;;;;;;21.42;27.77;102350.38;4943417;29;20601;-91
2023/04/19 09:30:02;;;;;;;7.18;4.97;;;;;;;21.21;27.72;102367.19;4938494;29;20143;-88
2023/04/19 09:32:28;;;;;;;5.60;4.55;;;;;;;21.41;27.43;102362.22;4954867;28;20626;-88
2023/04/19 09:34:55;;;;;;;5.47;4.75;;;;;;;21.32;27.00;102382.69;4945268;29;20055;-90
2023/04/19 09:37:21;;;;;;;4.68;4.28;;;;;;;21.50;26.98;102372.38;4931357;29;20095;-89
2023/04/19 09:39:47;;;;;;;6.05;4.50;;;;;;;21.70;26.87;102365.50;4928162;29;20119;-89
2023/04/19 09:42:12;;;;;;;5.00;4.60;;;;;;;22.36;26.45;102362.28;4930146;29;20114;-88
2023/04/19 09:44:38;;;;;;;4.90;4.38;;;;;;;22.52;25.82;102356.50;4943235;29;20055;-88
2023/04/19 09:47:21;;;;;;;4.65;4.25;;;;;;;23.15;26.92;102367.88;4944190;29;20400;-88
2023/04/19 09:49:47;;;;;;;4.93;4.43;;;;;;;22.79;25.15;102355.34;4865064;28;20047;-89
2023/04/19 09:52:13;;;;;;;5.93;3.97;;;;;;;21.82;24.96;102364.56;4898342;28;20045;-87
2023/04/19 09:54:38;;;;;;;4.75;4.30;;;;;;;21.61;25.54;102362.47;4866569;28;20033;-89
2023/04/19 09:57:04;;;;;;;8.73;4.30;;;;;;;22.56;24.83;102366.16;4945448;28;20052;-88
2023/04/19 09:59:29;;;;;;;4.45;3.97;;;;;;;23.57;24.65;102351.78;4873660;28;20040;-88
2023/04/19 10:01:55;;;;;;;9.07;4.65;;;;;;;23.81;23.48;102359.81;4873515;28;20614;-88
2023/04/19 10:04:22;;;;;;;4.47;3.78;;;;;;;24.10;22.97;102365.53;4869184;28;20136;-86
2023/04/19 10:06:50;;;;;;;5.05;4.07;;;;;;;24.40;22.56;102363.94;4864332;28;20088;-87
2023/04/19 10:09:17;;;;;;;6.78;4.70;;;;;;;25.12;22.78;102357.69;4881962;28;20027;-88
2023/04/19 10:11:48;;;;;;;5.40;4.00;;;;;;;24.87;22.12;102367.13;4908874;28;20033;-88
2023/04/19 10:14:15;;;;;;;4.88;3.78;;;;;;;25.12;22.25;102366.72;4867863;29;20033;-89
2023/04/19 10:16:40;;;;;;;6.70;3.88;;;;;;;25.54;21.64;102372.94;4935450;28;20033;-89
2023/04/19 10:19:09;;;;;;;5.35;3.70;;;;;;;24.91;20.73;102369.44;4870210;28;20056;-88
2023/04/19 10:21:35;;;;;;;5.40;3.40;;;;;;;25.19;21.11;102345.25;4854568;28;20029;-89
2023/04/19 10:24:01;;;;;;;4.25;3.40;;;;;;;25.34;19.70;102357.50;4868967;28;20366;-86
2023/04/19 10:26:27;;;;;;;5.00;3.30;;;;;;;25.16;20.12;102357.25;4868736;28;20025;-87
2023/04/19 10:28:56;;;;;;;18.98;6.47;;;;;;;25.03;20.13;102352.00;4934894;28;20041;-88
2023/04/19 10:31:24;;;;;;;26.13;9.90;;;;;;;24.84;19.94;102363.69;4858330;28;20057;-88
2023/04/19 10:33:53;;;;;;;7.32;3.78;;;;;;;24.58;19.70;102362.38;4885904;28;20173;-89
2023/04/19 10:36:20;;;;;;;13.75;5.32;;;;;;;24.10;20.12;102366.38;4933101;28;20487;-87
2023/04/19 10:38:54;;;;;;;14.80;5.93;;;;;;;24.79;19.94;102356.94;4869832;28;20037;-87
2023/04/19 10:41:20;;;;;;;8.57;3.45;;;;;;;25.13;19.74;102351.25;4864173;29;20034;-87
2023/04/19 10:43:54;;;;;;;9.85;4.50;;;;;;;26.11;20.79;102340.44;4856629;28;20060;-86
2023/04/19 10:46:20;;;;;;;5.57;3.08;;;;;;;26.52;18.64;102333.84;4893148;28;20102;-88
2023/04/19 10:48:52;;;;;;;3.87;2.70;;;;;;;26.77;19.04;102346.00;4860093;28;20120;-88
2023/04/19 10:51:26;;;;;;;5.70;2.72;;;;;;;26.23;17.84;102339.28;4933286;28;20286;-88
2023/04/19 10:53:59;;;;;;;3.28;2.50;;;;;;;25.51;19.47;102331.44;4856314;29;20510;-87
2023/04/19 10:56:34;;;;;;;4.72;2.45;;;;;;;25.96;19.16;102337.28;4856063;28;20030;-87
2023/04/19 10:59:11;;;;;;;5.38;2.15;;;;;;;25.01;18.20;102320.47;4959593;28;20033;-88
2023/04/19 11:01:43;;;;;;;4.70;2.10;;;;;;;24.67;18.15;102328.03;4856581;28;20462;-88
2023/04/19 11:04:12;;;;;;;2.47;1.90;;;;;;;25.29;17.69;102322.50;4866463;28;20025;-87
2023/04/19 11:07:02;;;;;;;2.42;2.05;;;;;;;25.96;17.94;102320.94;4881663;28;20667;-88
2023/04/19 11:09:34;;;;;;;2.40;1.85;;;;;;;24.92;18.07;102324.03;4963019;28;20056;-88
2023/04/19 11:12:10;;;;;;;2.45;2.10;;;;;;;25.14;18.12;102317.56;4863087;29;20037;-87
2023/04/19 11:14:44;;;;;;;3.53;1.92;;;;;;;25.38;18.35;102314.50;4936781;28;20177;-88
2023/04/19 11:17:24;;;;;;;3.50;2.15;;;;;;;25.06;18.26;102323.66;4863421;28;20053;-88
2023/04/19 11:20:05;;;;;;;2.85;1.98;;;;;;;25.11;18.77;102324.13;4905877;28;20035;-89
2023/04/19 11:22:39;;;;;;;3.22;2.38;;;;;;;24.65;19.02;102328.16;4879081;29;20021;-88